sensor_id;sensor_type;location;lat;lon;timestamp;P1;durP1;ratioP1;P2;durP2;ratioP2
52978;SDS011;63430;53.186;6.598;2023-05-10T00:01:54;19.65;;;18.23;;
52978;SDS011;63430;53.186;6.598;2023-05-10T00:03:59;18.60;;;17.17;;
52978;SDS011;63430;53.186;6.598;2023-05-10T00:06:02;21.50;;;19.75;;
52978;SDS011;63430;53.186;6.598;2023-05-10T00:08:05;20.20;;;18.60;;
52978;SDS011;63430;53.186;6.598;2023-05-10T00:10:16;22.80;;;21.05;;
52978;SDS011;63430;53.186;6.598;2023-05-10T00:12:18;21.13;;;19.42;;
52978;SDS011;63430;53.186;6.598;2023-05-10T00:14:22;22.02;;;20.52;;
52978;SDS011;63430;53.186;6.598;2023-05-10T00:16:26;22.33;;;20.63;;
52978;SDS011;63430;53.186;6.598;2023-05-10T00:18:30;22.08;;;20.25;;
52978;SDS011;63430;53.186;6.598;2023-05-10T00:20:35;22.27;;;20.65;;
52978;SDS011;63430;53.186;6.598;2023-05-10T00:22:38;20.25;;;18.77;;
52978;SDS011;63430;53.186;6.598;2023-05-10T00:24:40;21.95;;;20.25;;
52978;SDS011;63430;53.186;6.598;2023-05-10T00:26:43;21.35;;;19.85;;
52978;SDS011;63430;53.186;6.598;2023-05-10T00:28:46;20.73;;;18.88;;
52978;SDS011;63430;53.186;6.598;2023-05-10T00:30:48;20.48;;;18.98;;
52978;SDS011;63430;53.186;6.598;2023-05-10T00:32:51;21.08;;;19.77;;
52978;SDS011;63430;53.186;6.598;2023-05-10T00:34:54;19.58;;;18.33;;
52978;SDS011;63430;53.186;6.598;2023-05-10T00:37:11;21.70;;;20.20;;
52978;SDS011;63430;53.186;6.598;2023-05-10T00:39:14;21.58;;;19.98;;
52978;SDS011;63430;53.186;6.598;2023-05-10T00:41:16;19.08;;;17.77;;
52978;SDS011;63430;53.186;6.598;2023-05-10T00:43:20;21.23;;;19.55;;
52978;SDS011;63430;53.186;6.598;2023-05-10T00:45:24;22.40;;;20.83;;
52978;SDS011;63430;53.186;6.598;2023-05-10T00:47:26;21.80;;;20.38;;
52978;SDS011;63430;53.186;6.598;2023-05-10T00:49:30;21.35;;;19.95;;
52978;SDS011;63430;53.186;6.598;2023-05-10T00:51:33;21.10;;;19.63;;
52978;SDS011;63430;53.186;6.598;2023-05-10T00:53:38;19.92;;;18.45;;
52978;SDS011;63430;53.186;6.598;2023-05-10T00:55:41;22.00;;;20.40;;
52978;SDS011;63430;53.186;6.598;2023-05-10T00:57:44;22.05;;;20.55;;
52978;SDS011;63430;53.186;6.598;2023-05-10T00:59:49;22.13;;;20.63;;
52978;SDS011;63430;53.186;6.598;2023-05-10T01:01:53;21.48;;;20.08;;
52978;SDS011;63430;53.186;6.598;2023-05-10T01:03:59;21.02;;;19.63;;
52978;SDS011;63430;53.186;6.598;2023-05-10T01:06:02;19.88;;;18.67;;
52978;SDS011;63430;53.186;6.598;2023-05-10T01:08:10;19.95;;;18.65;;
52978;SDS011;63430;53.186;6.598;2023-05-10T01:10:15;20.98;;;19.67;;
52978;SDS011;63430;53.186;6.598;2023-05-10T01:12:18;20.30;;;19.02;;
52978;SDS011;63430;53.186;6.598;2023-05-10T01:14:23;21.08;;;19.70;;
52978;SDS011;63430;53.186;6.598;2023-05-10T01:16:28;20.58;;;19.35;;
52978;SDS011;63430;53.186;6.598;2023-05-10T01:18:32;19.77;;;18.48;;
52978;SDS011;63430;53.186;6.598;2023-05-10T01:20:38;21.75;;;20.35;;
52978;SDS011;63430;53.186;6.598;2023-05-10T01:25:28;19.27;;;18.05;;
52978;SDS011;63430;53.186;6.598;2023-05-10T01:27:54;21.02;;;19.58;;
52978;SDS011;63430;53.186;6.598;2023-05-10T01:30:28;20.45;;;19.15;;
52978;SDS011;63430;53.186;6.598;2023-05-10T01:32:59;21.10;;;19.80;;
52978;SDS011;63430;53.186;6.598;2023-05-10T01:35:10;20.73;;;19.33;;
52978;SDS011;63430;53.186;6.598;2023-05-10T01:37:27;21.27;;;19.95;;
52978;SDS011;63430;53.186;6.598;2023-05-10T01:39:36;20.73;;;19.42;;
52978;SDS011;63430;53.186;6.598;2023-05-10T01:41:46;20.55;;;19.25;;
52978;SDS011;63430;53.186;6.598;2023-05-10T01:43:56;20.30;;;19.00;;
52978;SDS011;63430;53.186;6.598;2023-05-10T01:46:03;21.52;;;20.23;;
52978;SDS011;63430;53.186;6.598;2023-05-10T01:48:15;21.27;;;19.83;;
52978;SDS011;63430;53.186;6.598;2023-05-10T01:50:22;20.48;;;19.17;;
52978;SDS011;63430;53.186;6.598;2023-05-10T01:52:31;21.45;;;20.05;;
52978;SDS011;63430;53.186;6.598;2023-05-10T01:54:38;20.70;;;19.33;;
52978;SDS011;63430;53.186;6.598;2023-05-10T01:56:46;22.08;;;20.48;;
52978;SDS011;63430;53.186;6.598;2023-05-10T01:58:52;21.75;;;20.35;;
52978;SDS011;63430;53.186;6.598;2023-05-10T02:03:01;23.55;;;21.92;;
52978;SDS011;63430;53.186;6.598;2023-05-10T02:05:11;21.80;;;20.30;;
52978;SDS011;63430;53.186;6.598;2023-05-10T02:07:15;21.67;;;20.08;;
52978;SDS011;63430;53.186;6.598;2023-05-10T02:09:19;22.40;;;20.90;;
52978;SDS011;63430;53.186;6.598;2023-05-10T02:11:24;21.33;;;19.90;;
52978;SDS011;63430;53.186;6.598;2023-05-10T02:13:29;22.23;;;20.73;;
52978;SDS011;63430;53.186;6.598;2023-05-10T02:15:34;21.92;;;20.42;;
52978;SDS011;63430;53.186;6.598;2023-05-10T02:17:39;22.52;;;20.92;;
52978;SDS011;63430;53.186;6.598;2023-05-10T02:19:45;22.23;;;20.73;;
52978;SDS011;63430;53.186;6.598;2023-05-10T02:21:52;21.98;;;20.48;;
52978;SDS011;63430;53.186;6.598;2023-05-10T02:23:57;21.48;;;20.08;;
52978;SDS011;63430;53.186;6.598;2023-05-10T02:26:03;22.17;;;20.60;;
52978;SDS011;63430;53.186;6.598;2023-05-10T02:28:07;23.20;;;21.60;;
52978;SDS011;63430;53.186;6.598;2023-05-10T02:32:15;21.13;;;19.80;;
52978;SDS011;63430;53.186;6.598;2023-05-10T02:34:21;22.13;;;20.65;;
52978;SDS011;63430;53.186;6.598;2023-05-10T02:38:32;22.70;;;21.30;;
52978;SDS011;63430;53.186;6.598;2023-05-10T02:40:36;23.05;;;21.55;;
52978;SDS011;63430;53.186;6.598;2023-05-10T02:42:43;24.10;;;22.30;;
52978;SDS011;63430;53.186;6.598;2023-05-10T02:44:47;22.27;;;20.75;;
52978;SDS011;63430;53.186;6.598;2023-05-10T02:46:52;22.20;;;20.70;;
52978;SDS011;63430;53.186;6.598;2023-05-10T02:48:57;22.60;;;21.15;;
52978;SDS011;63430;53.186;6.598;2023-05-10T02:51:00;22.83;;;21.05;;
52978;SDS011;63430;53.186;6.598;2023-05-10T02:53:09;22.67;;;20.98;;
52978;SDS011;63430;53.186;6.598;2023-05-10T02:55:19;22.00;;;20.38;;
52978;SDS011;63430;53.186;6.598;2023-05-10T02:57:27;21.05;;;19.55;;
52978;SDS011;63430;53.186;6.598;2023-05-10T02:59:36;21.90;;;20.30;;
52978;SDS011;63430;53.186;6.598;2023-05-10T03:01:38;21.23;;;19.58;;
52978;SDS011;63430;53.186;6.598;2023-05-10T03:03:41;22.08;;;20.48;;
52978;SDS011;63430;53.186;6.598;2023-05-10T03:05:44;22.05;;;20.35;;
52978;SDS011;63430;53.186;6.598;2023-05-10T03:07:47;22.13;;;20.52;;
52978;SDS011;63430;53.186;6.598;2023-05-10T03:09:49;21.77;;;20.17;;
52978;SDS011;63430;53.186;6.598;2023-05-10T03:12:00;23.50;;;21.67;;
52978;SDS011;63430;53.186;6.598;2023-05-10T03:14:10;24.27;;;22.23;;
52978;SDS011;63430;53.186;6.598;2023-05-10T03:16:24;24.45;;;22.48;;
52978;SDS011;63430;53.186;6.598;2023-05-10T03:18:34;24.63;;;22.45;;
52978;SDS011;63430;53.186;6.598;2023-05-10T03:20:47;22.30;;;20.60;;
52978;SDS011;63430;53.186;6.598;2023-05-10T03:22:53;22.85;;;21.23;;
52978;SDS011;63430;53.186;6.598;2023-05-10T03:25:04;24.25;;;22.45;;
52978;SDS011;63430;53.186;6.598;2023-05-10T03:27:11;24.67;;;22.77;;
52978;SDS011;63430;53.186;6.598;2023-05-10T03:29:16;23.35;;;21.52;;
52978;SDS011;63430;53.186;6.598;2023-05-10T03:31:20;22.90;;;21.00;;
52978;SDS011;63430;53.186;6.598;2023-05-10T03:33:23;24.27;;;22.13;;
52978;SDS011;63430;53.186;6.598;2023-05-10T03:35:27;22.92;;;21.00;;
52978;SDS011;63430;53.186;6.598;2023-05-10T03:37:30;24.98;;;23.02;;
52978;SDS011;63430;53.186;6.598;2023-05-10T03:39:32;24.20;;;22.08;;
52978;SDS011;63430;53.186;6.598;2023-05-10T03:41:36;25.10;;;22.55;;
52978;SDS011;63430;53.186;6.598;2023-05-10T03:43:41;24.17;;;22.10;;
52978;SDS011;63430;53.186;6.598;2023-05-10T03:45:44;24.10;;;22.15;;
52978;SDS011;63430;53.186;6.598;2023-05-10T03:47:47;22.35;;;20.42;;
52978;SDS011;63430;53.186;6.598;2023-05-10T03:49:50;23.50;;;21.40;;
52978;SDS011;63430;53.186;6.598;2023-05-10T03:51:53;24.38;;;22.27;;
52978;SDS011;63430;53.186;6.598;2023-05-10T03:53:55;25.95;;;23.42;;
52978;SDS011;63430;53.186;6.598;2023-05-10T03:55:58;24.85;;;22.48;;
52978;SDS011;63430;53.186;6.598;2023-05-10T03:58:01;26.23;;;23.52;;
52978;SDS011;63430;53.186;6.598;2023-05-10T04:00:10;23.83;;;21.55;;
52978;SDS011;63430;53.186;6.598;2023-05-10T04:02:16;24.20;;;21.95;;
52978;SDS011;63430;53.186;6.598;2023-05-10T04:04:19;26.38;;;23.73;;
52978;SDS011;63430;53.186;6.598;2023-05-10T04:06:24;25.38;;;22.80;;
52978;SDS011;63430;53.186;6.598;2023-05-10T04:08:27;27.35;;;24.52;;
52978;SDS011;63430;53.186;6.598;2023-05-10T04:10:31;25.67;;;23.05;;
52978;SDS011;63430;53.186;6.598;2023-05-10T04:12:34;25.75;;;23.27;;
52978;SDS011;63430;53.186;6.598;2023-05-10T04:14:37;27.00;;;24.20;;
52978;SDS011;63430;53.186;6.598;2023-05-10T04:16:43;26.77;;;24.03;;
52978;SDS011;63430;53.186;6.598;2023-05-10T04:18:46;29.20;;;26.02;;
52978;SDS011;63430;53.186;6.598;2023-05-10T04:20:49;26.15;;;23.70;;
52978;SDS011;63430;53.186;6.598;2023-05-10T04:22:55;25.42;;;23.42;;
52978;SDS011;63430;53.186;6.598;2023-05-10T04:25:00;25.35;;;22.80;;
52978;SDS011;63430;53.186;6.598;2023-05-10T04:27:03;25.50;;;23.08;;
52978;SDS011;63430;53.186;6.598;2023-05-10T04:29:06;25.48;;;23.33;;
52978;SDS011;63430;53.186;6.598;2023-05-10T04:31:09;25.75;;;23.63;;
52978;SDS011;63430;53.186;6.598;2023-05-10T04:33:14;25.23;;;23.30;;
52978;SDS011;63430;53.186;6.598;2023-05-10T04:35:19;26.17;;;23.77;;
52978;SDS011;63430;53.186;6.598;2023-05-10T04:37:22;25.50;;;23.60;;
52978;SDS011;63430;53.186;6.598;2023-05-10T04:39:24;24.88;;;22.80;;
52978;SDS011;63430;53.186;6.598;2023-05-10T04:41:27;23.13;;;21.10;;
52978;SDS011;63430;53.186;6.598;2023-05-10T04:43:30;23.10;;;21.20;;
52978;SDS011;63430;53.186;6.598;2023-05-10T04:45:33;22.33;;;20.73;;
52978;SDS011;63430;53.186;6.598;2023-05-10T04:47:36;21.55;;;20.15;;
52978;SDS011;63430;53.186;6.598;2023-05-10T04:49:41;20.45;;;19.23;;
52978;SDS011;63430;53.186;6.598;2023-05-10T04:51:44;20.70;;;19.60;;
52978;SDS011;63430;53.186;6.598;2023-05-10T04:54:06;21.52;;;19.90;;
52978;SDS011;63430;53.186;6.598;2023-05-10T04:56:29;22.17;;;20.98;;
52978;SDS011;63430;53.186;6.598;2023-05-10T04:58:51;22.30;;;20.95;;
52978;SDS011;63430;53.186;6.598;2023-05-10T05:01:14;21.20;;;20.00;;
52978;SDS011;63430;53.186;6.598;2023-05-10T05:03:36;21.25;;;20.05;;
52978;SDS011;63430;53.186;6.598;2023-05-10T05:06:02;20.05;;;18.95;;
52978;SDS011;63430;53.186;6.598;2023-05-10T05:08:25;19.70;;;18.60;;
52978;SDS011;63430;53.186;6.598;2023-05-10T05:10:48;21.10;;;19.08;;
52978;SDS011;63430;53.186;6.598;2023-05-10T05:12:52;20.15;;;19.05;;
52978;SDS011;63430;53.186;6.598;2023-05-10T05:14:54;20.17;;;19.02;;
52978;SDS011;63430;53.186;6.598;2023-05-10T05:16:58;19.17;;;18.15;;
52978;SDS011;63430;53.186;6.598;2023-05-10T05:19:02;21.97;;;20.73;;
52978;SDS011;63430;53.186;6.598;2023-05-10T05:23:18;21.23;;;20.13;;
52978;SDS011;63430;53.186;6.598;2023-05-10T05:25:22;19.98;;;18.73;;
52978;SDS011;63430;53.186;6.598;2023-05-10T05:27:25;21.08;;;19.88;;
52978;SDS011;63430;53.186;6.598;2023-05-10T05:29:29;20.65;;;19.42;;
52978;SDS011;63430;53.186;6.598;2023-05-10T05:31:32;19.95;;;18.65;;
52978;SDS011;63430;53.186;6.598;2023-05-10T05:33:35;20.83;;;19.35;;
52978;SDS011;63430;53.186;6.598;2023-05-10T05:35:37;20.85;;;19.75;;
52978;SDS011;63430;53.186;6.598;2023-05-10T05:37:42;21.40;;;20.30;;
52978;SDS011;63430;53.186;6.598;2023-05-10T05:39:45;21.90;;;20.70;;
52978;SDS011;63430;53.186;6.598;2023-05-10T05:41:48;21.58;;;20.38;;
52978;SDS011;63430;53.186;6.598;2023-05-10T05:43:50;19.55;;;18.35;;
52978;SDS011;63430;53.186;6.598;2023-05-10T05:45:53;19.98;;;18.67;;
52978;SDS011;63430;53.186;6.598;2023-05-10T05:47:55;21.55;;;20.25;;
52978;SDS011;63430;53.186;6.598;2023-05-10T05:49:58;21.23;;;20.05;;
52978;SDS011;63430;53.186;6.598;2023-05-10T05:52:01;18.92;;;17.83;;
52978;SDS011;63430;53.186;6.598;2023-05-10T05:54:07;19.55;;;18.35;;
52978;SDS011;63430;53.186;6.598;2023-05-10T05:56:10;19.67;;;18.50;;
52978;SDS011;63430;53.186;6.598;2023-05-10T05:58:15;19.63;;;18.38;;
52978;SDS011;63430;53.186;6.598;2023-05-10T06:00:17;19.40;;;18.20;;
52978;SDS011;63430;53.186;6.598;2023-05-10T06:02:20;19.50;;;18.25;;
52978;SDS011;63430;53.186;6.598;2023-05-10T06:04:23;20.33;;;18.95;;
52978;SDS011;63430;53.186;6.598;2023-05-10T06:06:26;20.67;;;19.38;;
52978;SDS011;63430;53.186;6.598;2023-05-10T06:08:28;21.30;;;19.80;;
52978;SDS011;63430;53.186;6.598;2023-05-10T06:10:33;20.13;;;18.92;;
52978;SDS011;63430;53.186;6.598;2023-05-10T06:12:36;19.58;;;18.33;;
52978;SDS011;63430;53.186;6.598;2023-05-10T06:14:39;18.50;;;17.40;;
52978;SDS011;63430;53.186;6.598;2023-05-10T06:16:41;19.52;;;18.17;;
52978;SDS011;63430;53.186;6.598;2023-05-10T06:18:44;19.75;;;18.50;;
52978;SDS011;63430;53.186;6.598;2023-05-10T06:20:46;18.45;;;17.38;;
52978;SDS011;63430;53.186;6.598;2023-05-10T06:22:49;19.10;;;18.00;;
52978;SDS011;63430;53.186;6.598;2023-05-10T06:24:55;17.55;;;16.52;;
52978;SDS011;63430;53.186;6.598;2023-05-10T06:27:00;18.02;;;17.00;;
52978;SDS011;63430;53.186;6.598;2023-05-10T06:29:03;18.17;;;17.23;;
52978;SDS011;63430;53.186;6.598;2023-05-10T06:31:06;16.55;;;15.70;;
52978;SDS011;63430;53.186;6.598;2023-05-10T06:33:09;17.30;;;16.40;;
52978;SDS011;63430;53.186;6.598;2023-05-10T06:35:12;17.33;;;16.42;;
52978;SDS011;63430;53.186;6.598;2023-05-10T06:37:14;17.63;;;16.73;;
52978;SDS011;63430;53.186;6.598;2023-05-10T06:39:17;19.52;;;18.52;;
52978;SDS011;63430;53.186;6.598;2023-05-10T06:41:22;18.70;;;17.58;;
52978;SDS011;63430;53.186;6.598;2023-05-10T06:43:28;19.58;;;18.25;;
52978;SDS011;63430;53.186;6.598;2023-05-10T06:45:30;20.75;;;19.48;;
52978;SDS011;63430;53.186;6.598;2023-05-10T06:47:33;19.45;;;18.15;;
52978;SDS011;63430;53.186;6.598;2023-05-10T06:49:40;20.17;;;18.67;;
52978;SDS011;63430;53.186;6.598;2023-05-10T06:51:42;22.13;;;20.73;;
52978;SDS011;63430;53.186;6.598;2023-05-10T06:53:45;20.60;;;19.10;;
52978;SDS011;63430;53.186;6.598;2023-05-10T06:55:48;19.13;;;17.92;;
52978;SDS011;63430;53.186;6.598;2023-05-10T06:57:51;18.17;;;17.07;;
52978;SDS011;63430;53.186;6.598;2023-05-10T06:59:58;18.25;;;17.17;;
52978;SDS011;63430;53.186;6.598;2023-05-10T07:02:03;19.10;;;17.85;;
52978;SDS011;63430;53.186;6.598;2023-05-10T07:04:06;19.55;;;18.27;;
52978;SDS011;63430;53.186;6.598;2023-05-10T07:06:09;19.30;;;18.10;;
52978;SDS011;63430;53.186;6.598;2023-05-10T07:08:31;18.58;;;17.45;;
52978;SDS011;63430;53.186;6.598;2023-05-10T07:10:34;19.25;;;18.05;;
52978;SDS011;63430;53.186;6.598;2023-05-10T07:12:37;20.35;;;19.05;;
52978;SDS011;63430;53.186;6.598;2023-05-10T07:14:40;19.52;;;18.20;;
52978;SDS011;63430;53.186;6.598;2023-05-10T07:16:46;20.15;;;19.02;;
52978;SDS011;63430;53.186;6.598;2023-05-10T07:18:48;19.27;;;18.00;;
52978;SDS011;63430;53.186;6.598;2023-05-10T07:20:52;18.85;;;17.65;;
52978;SDS011;63430;53.186;6.598;2023-05-10T07:22:55;19.52;;;18.35;;
52978;SDS011;63430;53.186;6.598;2023-05-10T07:24:58;17.85;;;16.73;;
52978;SDS011;63430;53.186;6.598;2023-05-10T07:27:00;19.98;;;18.50;;
52978;SDS011;63430;53.186;6.598;2023-05-10T07:29:03;18.98;;;17.70;;
52978;SDS011;63430;53.186;6.598;2023-05-10T07:31:06;18.70;;;17.50;;
52978;SDS011;63430;53.186;6.598;2023-05-10T07:33:12;17.70;;;16.70;;
52978;SDS011;63430;53.186;6.598;2023-05-10T07:35:15;17.40;;;16.30;;
52978;SDS011;63430;53.186;6.598;2023-05-10T07:37:18;17.88;;;16.77;;
52978;SDS011;63430;53.186;6.598;2023-05-10T07:39:25;19.17;;;18.08;;
52978;SDS011;63430;53.186;6.598;2023-05-10T07:41:29;18.63;;;17.58;;
52978;SDS011;63430;53.186;6.598;2023-05-10T07:43:33;19.83;;;18.73;;
52978;SDS011;63430;53.186;6.598;2023-05-10T07:45:36;20.02;;;18.92;;
52978;SDS011;63430;53.186;6.598;2023-05-10T07:47:38;20.60;;;19.50;;
52978;SDS011;63430;53.186;6.598;2023-05-10T07:49:43;20.98;;;19.88;;
52978;SDS011;63430;53.186;6.598;2023-05-10T07:51:46;17.60;;;16.60;;
52978;SDS011;63430;53.186;6.598;2023-05-10T07:53:48;19.33;;;18.23;;
52978;SDS011;63430;53.186;6.598;2023-05-10T07:55:51;18.23;;;17.23;;
52978;SDS011;63430;53.186;6.598;2023-05-10T07:57:56;18.25;;;17.35;;
52978;SDS011;63430;53.186;6.598;2023-05-10T07:59:58;18.55;;;17.55;;
52978;SDS011;63430;53.186;6.598;2023-05-10T08:02:01;17.17;;;16.27;;
52978;SDS011;63430;53.186;6.598;2023-05-10T08:04:03;16.08;;;15.27;;
52978;SDS011;63430;53.186;6.598;2023-05-10T08:06:09;18.58;;;17.48;;
52978;SDS011;63430;53.186;6.598;2023-05-10T08:08:11;18.00;;;17.00;;
52978;SDS011;63430;53.186;6.598;2023-05-10T08:10:14;18.55;;;17.52;;
52978;SDS011;63430;53.186;6.598;2023-05-10T08:12:16;18.48;;;17.38;;
52978;SDS011;63430;53.186;6.598;2023-05-10T08:14:19;19.02;;;17.83;;
52978;SDS011;63430;53.186;6.598;2023-05-10T08:16:21;16.67;;;15.70;;
52978;SDS011;63430;53.186;6.598;2023-05-10T08:18:24;17.63;;;16.42;;
52978;SDS011;63430;53.186;6.598;2023-05-10T08:20:27;18.10;;;17.20;;
52978;SDS011;63430;53.186;6.598;2023-05-10T08:22:32;17.55;;;16.38;;
52978;SDS011;63430;53.186;6.598;2023-05-10T08:24:35;18.65;;;17.45;;
52978;SDS011;63430;53.186;6.598;2023-05-10T08:26:40;17.98;;;16.88;;
52978;SDS011;63430;53.186;6.598;2023-05-10T08:28:45;18.50;;;17.20;;
52978;SDS011;63430;53.186;6.598;2023-05-10T08:30:47;15.95;;;15.10;;
52978;SDS011;63430;53.186;6.598;2023-05-10T08:32:51;17.30;;;16.20;;
52978;SDS011;63430;53.186;6.598;2023-05-10T08:34:53;17.25;;;16.30;;
52978;SDS011;63430;53.186;6.598;2023-05-10T08:36:56;16.52;;;15.60;;
52978;SDS011;63430;53.186;6.598;2023-05-10T08:39:01;19.02;;;18.02;;
52978;SDS011;63430;53.186;6.598;2023-05-10T08:41:04;19.90;;;18.65;;
52978;SDS011;63430;53.186;6.598;2023-05-10T08:43:08;18.20;;;17.17;;
52978;SDS011;63430;53.186;6.598;2023-05-10T08:45:12;19.02;;;17.92;;
52978;SDS011;63430;53.186;6.598;2023-05-10T08:47:17;18.63;;;17.52;;
52978;SDS011;63430;53.186;6.598;2023-05-10T08:49:20;16.38;;;15.40;;
52978;SDS011;63430;53.186;6.598;2023-05-10T08:51:24;18.08;;;16.63;;
52978;SDS011;63430;53.186;6.598;2023-05-10T08:53:29;16.75;;;15.75;;
52978;SDS011;63430;53.186;6.598;2023-05-10T08:55:37;16.95;;;16.05;;
52978;SDS011;63430;53.186;6.598;2023-05-10T08:57:40;16.98;;;15.98;;
52978;SDS011;63430;53.186;6.598;2023-05-10T08:59:43;17.45;;;16.48;;
52978;SDS011;63430;53.186;6.598;2023-05-10T09:01:46;16.40;;;15.30;;
52978;SDS011;63430;53.186;6.598;2023-05-10T09:03:51;16.98;;;15.88;;
52978;SDS011;63430;53.186;6.598;2023-05-10T09:05:54;17.48;;;16.45;;
52978;SDS011;63430;53.186;6.598;2023-05-10T09:07:59;18.80;;;17.70;;
52978;SDS011;63430;53.186;6.598;2023-05-10T09:10:05;20.60;;;18.95;;
52978;SDS011;63430;53.186;6.598;2023-05-10T09:16:16;17.25;;;15.93;;
52978;SDS011;63430;53.186;6.598;2023-05-10T09:18:23;17.92;;;16.63;;
52978;SDS011;63430;53.186;6.598;2023-05-10T09:20:28;16.83;;;15.73;;
52978;SDS011;63430;53.186;6.598;2023-05-10T09:22:31;16.80;;;15.68;;
52978;SDS011;63430;53.186;6.598;2023-05-10T09:24:33;16.00;;;15.05;;
52978;SDS011;63430;53.186;6.598;2023-05-10T09:26:41;18.43;;;17.40;;
52978;SDS011;63430;53.186;6.598;2023-05-10T09:28:53;15.40;;;14.50;;
52978;SDS011;63430;53.186;6.598;2023-05-10T09:30:57;15.40;;;14.30;;
52978;SDS011;63430;53.186;6.598;2023-05-10T09:33:00;18.75;;;17.58;;
52978;SDS011;63430;53.186;6.598;2023-05-10T09:35:06;17.63;;;16.42;;
52978;SDS011;63430;53.186;6.598;2023-05-10T09:37:09;16.95;;;15.85;;
52978;SDS011;63430;53.186;6.598;2023-05-10T09:39:12;16.95;;;15.88;;
52978;SDS011;63430;53.186;6.598;2023-05-10T09:41:17;17.02;;;15.73;;
52978;SDS011;63430;53.186;6.598;2023-05-10T09:43:21;17.13;;;16.13;;
52978;SDS011;63430;53.186;6.598;2023-05-10T09:45:26;16.45;;;15.45;;
52978;SDS011;63430;53.186;6.598;2023-05-10T09:47:31;18.25;;;16.85;;
52978;SDS011;63430;53.186;6.598;2023-05-10T09:49:38;16.38;;;15.18;;
52978;SDS011;63430;53.186;6.598;2023-05-10T09:51:43;21.98;;;20.60;;
52978;SDS011;63430;53.186;6.598;2023-05-10T09:53:45;25.42;;;23.95;;
52978;SDS011;63430;53.186;6.598;2023-05-10T09:55:48;22.45;;;21.15;;
52978;SDS011;63430;53.186;6.598;2023-05-10T09:57:58;17.98;;;16.77;;
52978;SDS011;63430;53.186;6.598;2023-05-10T10:00:02;18.17;;;16.98;;
52978;SDS011;63430;53.186;6.598;2023-05-10T10:02:16;18.25;;;17.02;;
52978;SDS011;63430;53.186;6.598;2023-05-10T10:04:19;18.70;;;17.48;;
52978;SDS011;63430;53.186;6.598;2023-05-10T10:06:23;18.80;;;17.40;;
52978;SDS011;63430;53.186;6.598;2023-05-10T10:08:31;16.50;;;15.32;;
52978;SDS011;63430;53.186;6.598;2023-05-10T10:10:33;15.65;;;14.65;;
52978;SDS011;63430;53.186;6.598;2023-05-10T10:12:36;14.60;;;13.23;;
52978;SDS011;63430;53.186;6.598;2023-05-10T10:14:40;16.83;;;15.77;;
52978;SDS011;63430;53.186;6.598;2023-05-10T10:16:44;17.88;;;16.67;;
52978;SDS011;63430;53.186;6.598;2023-05-10T10:19:16;19.75;;;18.45;;
52978;SDS011;63430;53.186;6.598;2023-05-10T10:21:19;16.75;;;15.55;;
52978;SDS011;63430;53.186;6.598;2023-05-10T10:23:26;16.23;;;15.07;;
52978;SDS011;63430;53.186;6.598;2023-05-10T10:25:29;15.07;;;13.97;;
52978;SDS011;63430;53.186;6.598;2023-05-10T10:27:39;15.32;;;14.23;;
52978;SDS011;63430;53.186;6.598;2023-05-10T10:29:50;11.20;;;10.40;;
52978;SDS011;63430;53.186;6.598;2023-05-10T10:32:03;12.50;;;11.48;;
52978;SDS011;63430;53.186;6.598;2023-05-10T10:34:25;10.25;;;9.35;;
52978;SDS011;63430;53.186;6.598;2023-05-10T10:36:29;12.07;;;11.13;;
52978;SDS011;63430;53.186;6.598;2023-05-10T10:38:36;14.30;;;13.30;;
52978;SDS011;63430;53.186;6.598;2023-05-10T10:40:40;11.50;;;10.55;;
52978;SDS011;63430;53.186;6.598;2023-05-10T10:42:45;9.93;;;8.93;;
52978;SDS011;63430;53.186;6.598;2023-05-10T10:44:48;13.43;;;12.27;;
52978;SDS011;63430;53.186;6.598;2023-05-10T10:46:58;14.40;;;13.40;;
52978;SDS011;63430;53.186;6.598;2023-05-10T10:49:08;13.45;;;12.52;;
52978;SDS011;63430;53.186;6.598;2023-05-10T10:51:17;13.60;;;12.35;;
52978;SDS011;63430;53.186;6.598;2023-05-10T10:53:19;14.07;;;13.00;;
52978;SDS011;63430;53.186;6.598;2023-05-10T10:55:24;12.27;;;11.10;;
52978;SDS011;63430;53.186;6.598;2023-05-10T10:57:28;11.48;;;10.57;;
52978;SDS011;63430;53.186;6.598;2023-05-10T10:59:34;13.02;;;12.07;;
52978;SDS011;63430;53.186;6.598;2023-05-10T11:01:37;14.27;;;13.20;;
52978;SDS011;63430;53.186;6.598;2023-05-10T11:04:17;11.07;;;10.18;;
52978;SDS011;63430;53.186;6.598;2023-05-10T11:06:31;13.25;;;12.25;;
52978;SDS011;63430;53.186;6.598;2023-05-10T11:08:41;15.50;;;14.35;;
52978;SDS011;63430;53.186;6.598;2023-05-10T11:10:51;14.90;;;13.70;;
52978;SDS011;63430;53.186;6.598;2023-05-10T11:13:10;12.85;;;11.65;;
52978;SDS011;63430;53.186;6.598;2023-05-10T11:15:12;11.18;;;10.27;;
52978;SDS011;63430;53.186;6.598;2023-05-10T11:17:24;10.15;;;9.15;;
52978;SDS011;63430;53.186;6.598;2023-05-10T11:19:29;10.20;;;8.25;;
52978;SDS011;63430;53.186;6.598;2023-05-10T11:21:45;10.25;;;9.32;;
52978;SDS011;63430;53.186;6.598;2023-05-10T11:23:50;10.43;;;9.43;;
52978;SDS011;63430;53.186;6.598;2023-05-10T11:25:53;9.48;;;8.57;;
52978;SDS011;63430;53.186;6.598;2023-05-10T11:27:58;9.32;;;8.52;;
52978;SDS011;63430;53.186;6.598;2023-05-10T11:30:07;11.10;;;10.20;;
52978;SDS011;63430;53.186;6.598;2023-05-10T11:32:11;9.43;;;8.65;;
52978;SDS011;63430;53.186;6.598;2023-05-10T11:34:24;8.57;;;7.77;;
52978;SDS011;63430;53.186;6.598;2023-05-10T11:36:28;10.13;;;9.07;;
52978;SDS011;63430;53.186;6.598;2023-05-10T11:38:41;10.45;;;9.45;;
52978;SDS011;63430;53.186;6.598;2023-05-10T11:40:44;9.68;;;8.57;;
52978;SDS011;63430;53.186;6.598;2023-05-10T11:42:46;11.50;;;9.13;;
52978;SDS011;63430;53.186;6.598;2023-05-10T11:44:49;9.93;;;8.18;;
52978;SDS011;63430;53.186;6.598;2023-05-10T11:46:51;10.38;;;8.27;;
52978;SDS011;63430;53.186;6.598;2023-05-10T11:48:55;11.30;;;10.25;;
52978;SDS011;63430;53.186;6.598;2023-05-10T11:51:02;10.00;;;9.10;;
52978;SDS011;63430;53.186;6.598;2023-05-10T11:53:07;9.07;;;7.65;;
52978;SDS011;63430;53.186;6.598;2023-05-10T11:55:12;9.15;;;7.88;;
52978;SDS011;63430;53.186;6.598;2023-05-10T11:57:17;8.77;;;7.78;;
52978;SDS011;63430;53.186;6.598;2023-05-10T11:59:21;10.48;;;9.30;;
52978;SDS011;63430;53.186;6.598;2023-05-10T12:01:23;9.60;;;8.63;;
52978;SDS011;63430;53.186;6.598;2023-05-10T12:03:28;12.43;;;9.87;;
52978;SDS011;63430;53.186;6.598;2023-05-10T12:05:32;12.30;;;8.85;;
52978;SDS011;63430;53.186;6.598;2023-05-10T12:07:35;14.90;;;10.65;;
52978;SDS011;63430;53.186;6.598;2023-05-10T12:09:41;12.38;;;11.05;;
52978;SDS011;63430;53.186;6.598;2023-05-10T12:11:47;12.93;;;11.73;;
52978;SDS011;63430;53.186;6.598;2023-05-10T12:13:50;11.40;;;10.27;;
52978;SDS011;63430;53.186;6.598;2023-05-10T12:15:57;13.73;;;12.38;;
52978;SDS011;63430;53.186;6.598;2023-05-10T12:18:01;13.50;;;12.02;;
52978;SDS011;63430;53.186;6.598;2023-05-10T12:20:14;13.38;;;10.38;;
52978;SDS011;63430;53.186;6.598;2023-05-10T12:22:20;14.73;;;12.43;;
52978;SDS011;63430;53.186;6.598;2023-05-10T12:24:22;11.63;;;10.43;;
52978;SDS011;63430;53.186;6.598;2023-05-10T12:28:33;11.00;;;9.90;;
52978;SDS011;63430;53.186;6.598;2023-05-10T12:30:36;11.85;;;10.75;;
52978;SDS011;63430;53.186;6.598;2023-05-10T12:32:39;13.45;;;12.25;;
52978;SDS011;63430;53.186;6.598;2023-05-10T12:34:42;13.23;;;11.75;;